sensor_id;sensor_type;location;lat;lon;timestamp;pressure;altitude;pressure_sealevel;temperature;humidity
71917;BME280;59793;46.506;6.674;2023-02-15T00:01:11;98478.56;;;6.14;65.86
71917;BME280;59793;46.506;6.674;2023-02-15T00:03:37;98477.47;;;6.20;66.14
71917;BME280;59793;46.506;6.674;2023-02-15T00:06:04;98490.78;;;6.24;65.50
71917;BME280;59793;46.506;6.674;2023-02-15T00:08:29;98489.44;;;6.27;65.08
71917;BME280;59793;46.506;6.674;2023-02-15T00:13:30;98466.53;;;6.13;63.92
71917;BME280;59793;46.506;6.674;2023-02-15T00:16:03;98464.63;;;5.95;63.86
71917;BME280;59793;46.506;6.674;2023-02-15T00:18:29;98490.41;;;6.07;63.80
71917;BME280;59793;46.506;6.674;2023-02-15T00:20:55;98445.34;;;5.81;64.03
71917;BME280;59793;46.506;6.674;2023-02-15T00:23:20;98489.09;;;6.04;65.37
71917;BME280;59793;46.506;6.674;2023-02-15T00:25:46;98402.91;;;5.60;65.44
71917;BME280;59793;46.506;6.674;2023-02-15T00:28:11;98484.66;;;6.34;65.31
71917;BME280;59793;46.506;6.674;2023-02-15T00:30:36;98458.91;;;6.17;64.25
71917;BME280;59793;46.506;6.674;2023-02-15T00:33:02;98461.50;;;6.22;63.58
71917;BME280;59793;46.506;6.674;2023-02-15T00:35:27;98462.47;;;6.02;63.59
71917;BME280;59793;46.506;6.674;2023-02-15T00:37:52;98458.91;;;5.88;63.95
71917;BME280;59793;46.506;6.674;2023-02-15T00:40:18;98484.06;;;6.13;63.79
71917;BME280;59793;46.506;6.674;2023-02-15T00:42:43;98456.00;;;5.94;65.10
71917;BME280;59793;46.506;6.674;2023-02-15T00:45:09;98470.53;;;6.06;65.08
71917;BME280;59793;46.506;6.674;2023-02-15T00:47:34;98446.25;;;6.00;66.42
71917;BME280;59793;46.506;6.674;2023-02-15T00:50:00;98440.13;;;5.81;65.76
71917;BME280;59793;46.506;6.674;2023-02-15T00:52:25;98450.59;;;5.81;66.07
71917;BME280;59793;46.506;6.674;2023-02-15T00:54:51;98427.25;;;5.55;66.26
71917;BME280;59793;46.506;6.674;2023-02-15T00:57:16;98463.13;;;5.79;66.59
71917;BME280;59793;46.506;6.674;2023-02-15T00:59:41;98462.88;;;5.80;66.79
71917;BME280;59793;46.506;6.674;2023-02-15T01:02:07;98453.75;;;5.78;67.48
71917;BME280;59793;46.506;6.674;2023-02-15T01:04:32;98442.75;;;5.75;67.42
71917;BME280;59793;46.506;6.674;2023-02-15T01:06:57;98475.03;;;6.00;67.18
71917;BME280;59793;46.506;6.674;2023-02-15T01:09:23;98461.22;;;5.89;67.09
71917;BME280;59793;46.506;6.674;2023-02-15T01:11:48;98449.03;;;5.80;65.90
71917;BME280;59793;46.506;6.674;2023-02-15T01:14:13;98462.09;;;5.80;66.22
71917;BME280;59793;46.506;6.674;2023-02-15T01:16:39;98432.16;;;5.62;67.03
71917;BME280;59793;46.506;6.674;2023-02-15T01:19:05;98470.97;;;5.84;67.28
71917;BME280;59793;46.506;6.674;2023-02-15T01:21:31;98450.91;;;5.74;68.37
71917;BME280;59793;46.506;6.674;2023-02-15T01:24:00;98475.56;;;5.63;69.67
71917;BME280;59793;46.506;6.674;2023-02-15T01:26:25;98474.94;;;5.76;69.99
71917;BME280;59793;46.506;6.674;2023-02-15T01:28:50;98465.25;;;5.77;69.56
71917;BME280;59793;46.506;6.674;2023-02-15T01:31:19;98470.97;;;5.84;69.79
71917;BME280;59793;46.506;6.674;2023-02-15T01:33:46;98474.72;;;5.72;70.39
71917;BME280;59793;46.506;6.674;2023-02-15T01:36:12;98474.25;;;5.60;71.64
71917;BME280;59793;46.506;6.674;2023-02-15T01:38:37;98444.34;;;5.42;71.43
71917;BME280;59793;46.506;6.674;2023-02-15T01:41:03;98477.59;;;5.71;71.32
71917;BME280;59793;46.506;6.674;2023-02-15T01:46:23;98442.94;;;5.55;70.89
71917;BME280;59793;46.506;6.674;2023-02-15T01:48:57;98445.44;;;5.70;69.87
71917;BME280;59793;46.506;6.674;2023-02-15T01:51:26;98466.19;;;5.91;69.16
71917;BME280;59793;46.506;6.674;2023-02-15T01:53:58;98457.69;;;5.75;68.94
71917;BME280;59793;46.506;6.674;2023-02-15T01:56:32;98445.59;;;5.50;69.31
71917;BME280;59793;46.506;6.674;2023-02-15T01:59:02;98423.72;;;5.41;68.91
71917;BME280;59793;46.506;6.674;2023-02-15T02:01:28;98459.88;;;5.63;69.64
71917;BME280;59793;46.506;6.674;2023-02-15T02:06:27;98456.94;;;5.69;68.24
71917;BME280;59793;46.506;6.674;2023-02-15T02:08:54;98431.09;;;5.28;69.23
71917;BME280;59793;46.506;6.674;2023-02-15T02:11:20;98451.22;;;5.28;69.36
71917;BME280;59793;46.506;6.674;2023-02-15T02:13:46;98450.88;;;5.40;70.09
71917;BME280;59793;46.506;6.674;2023-02-15T02:24:53;98437.63;;;5.65;69.10
71917;BME280;59793;46.506;6.674;2023-02-15T02:36:14;98411.78;;;5.24;69.11
71917;BME280;59793;46.506;6.674;2023-02-15T02:46:56;98418.91;;;5.14;71.20
71917;BME280;59793;46.506;6.674;2023-02-15T02:52:00;98424.63;;;5.21;70.68
71917;BME280;59793;46.506;6.674;2023-02-15T02:54:26;98395.81;;;4.92;71.13
71917;BME280;59793;46.506;6.674;2023-02-15T02:56:53;98411.06;;;5.14;70.95
71917;BME280;59793;46.506;6.674;2023-02-15T02:59:29;98435.19;;;5.40;70.61
71917;BME280;59793;46.506;6.674;2023-02-15T03:02:13;98432.25;;;5.51;70.33
71917;BME280;59793;46.506;6.674;2023-02-15T03:04:46;98427.09;;;5.41;70.54
71917;BME280;59793;46.506;6.674;2023-02-15T03:07:16;98436.25;;;5.39;70.38
71917;BME280;59793;46.506;6.674;2023-02-15T03:09:49;98407.66;;;5.18;70.14
71917;BME280;59793;46.506;6.674;2023-02-15T03:12:18;98428.47;;;5.28;70.16
71917;BME280;59793;46.506;6.674;2023-02-15T03:14:51;98428.72;;;5.32;70.04
71917;BME280;59793;46.506;6.674;2023-02-15T03:17:20;98425.03;;;5.33;69.50
71917;BME280;59793;46.506;6.674;2023-02-15T03:19:49;98427.53;;;5.14;70.86
71917;BME280;59793;46.506;6.674;2023-02-15T03:22:25;98406.78;;;4.89;71.47
71917;BME280;59793;46.506;6.674;2023-02-15T03:25:18;98427.53;;;5.14;71.63
71917;BME280;59793;46.506;6.674;2023-02-15T03:27:48;98423.31;;;5.23;71.65
71917;BME280;59793;46.506;6.674;2023-02-15T03:30:16;98375.69;;;4.92;71.49
71917;BME280;59793;46.506;6.674;2023-02-15T03:32:44;98344.50;;;4.67;72.32
71917;BME280;59793;46.506;6.674;2023-02-15T03:35:12;98396.47;;;5.08;72.11
71917;BME280;59793;46.506;6.674;2023-02-15T03:37:51;98417.78;;;5.25;71.75
71917;BME280;59793;46.506;6.674;2023-02-15T03:40:29;98424.88;;;5.19;71.98
71917;BME280;59793;46.506;6.674;2023-02-15T03:43:17;98430.09;;;5.19;71.26
71917;BME280;59793;46.506;6.674;2023-02-15T03:45:47;98433.53;;;5.15;71.83
71917;BME280;59793;46.506;6.674;2023-02-15T03:48:31;98428.13;;;5.01;72.01
71917;BME280;59793;46.506;6.674;2023-02-15T03:51:03;98436.47;;;5.03;71.99
71917;BME280;59793;46.506;6.674;2023-02-15T03:53:50;98432.84;;;4.94;73.05
71917;BME280;59793;46.506;6.674;2023-02-15T03:56:17;98439.09;;;5.03;74.39
71917;BME280;59793;46.506;6.674;2023-02-15T03:58:42;98387.66;;;4.44;72.83
71917;BME280;59793;46.506;6.674;2023-02-15T04:04:25;98430.53;;;4.87;73.65
71917;BME280;59793;46.506;6.674;2023-02-15T04:06:51;98431.84;;;4.90;73.38
71917;BME280;59793;46.506;6.674;2023-02-15T04:09:17;98442.28;;;4.90;74.22
71917;BME280;59793;46.506;6.674;2023-02-15T04:12:01;98437.50;;;5.07;73.15
71917;BME280;59793;46.506;6.674;2023-02-15T04:14:26;98439.28;;;5.17;73.20
71917;BME280;59793;46.506;6.674;2023-02-15T04:17:10;98426.03;;;5.03;73.47
71917;BME280;59793;46.506;6.674;2023-02-15T04:19:35;98404.91;;;4.94;74.30
71917;BME280;59793;46.506;6.674;2023-02-15T04:22:19;98390.06;;;4.90;73.86
71917;BME280;59793;46.506;6.674;2023-02-15T04:25:04;98436.13;;;5.20;73.12
71917;BME280;59793;46.506;6.674;2023-02-15T04:27:37;98426.50;;;5.10;73.21
71917;BME280;59793;46.506;6.674;2023-02-15T04:30:03;98414.09;;;4.87;71.93
71917;BME280;59793;46.506;6.674;2023-02-15T04:32:28;98428.78;;;4.72;71.54
71917;BME280;59793;46.506;6.674;2023-02-15T04:34:54;98432.47;;;4.61;71.60
71917;BME280;59793;46.506;6.674;2023-02-15T04:37:19;98433.59;;;4.40;72.00
71917;BME280;59793;46.506;6.674;2023-02-15T04:39:44;98445.88;;;4.39;71.06
71917;BME280;59793;46.506;6.674;2023-02-15T04:42:10;98446.94;;;4.33;71.06
71917;BME280;59793;46.506;6.674;2023-02-15T04:44:35;98415.13;;;4.16;70.87
71917;BME280;59793;46.506;6.674;2023-02-15T04:47:00;98411.53;;;4.06;70.80
71917;BME280;59793;46.506;6.674;2023-02-15T04:49:26;98442.75;;;4.42;70.34
71917;BME280;59793;46.506;6.674;2023-02-15T04:51:51;98415.88;;;4.37;69.74
71917;BME280;59793;46.506;6.674;2023-02-15T04:54:17;98428.84;;;4.57;71.45
71917;BME280;59793;46.506;6.674;2023-02-15T04:56:42;98417.84;;;4.70;72.43
71917;BME280;59793;46.506;6.674;2023-02-15T04:59:10;98448.22;;;5.00;72.43
71917;BME280;59793;46.506;6.674;2023-02-15T05:01:36;98437.78;;;5.00;71.39
71917;BME280;59793;46.506;6.674;2023-02-15T05:04:02;98449.00;;;5.01;71.76
71917;BME280;59793;46.506;6.674;2023-02-15T05:06:27;98432.94;;;4.73;70.95
71917;BME280;59793;46.506;6.674;2023-02-15T05:08:53;98449.69;;;4.62;71.52
71917;BME280;59793;46.506;6.674;2023-02-15T05:11:18;98411.16;;;4.44;71.09
71917;BME280;59793;46.506;6.674;2023-02-15T05:13:44;98448.59;;;4.78;70.50
71917;BME280;59793;46.506;6.674;2023-02-15T05:16:09;98436.31;;;4.79;70.80
71917;BME280;59793;46.506;6.674;2023-02-15T05:18:34;98408.53;;;4.44;70.60
71917;BME280;59793;46.506;6.674;2023-02-15T05:21:00;98440.34;;;4.56;71.11
71917;BME280;59793;46.506;6.674;2023-02-15T05:23:25;98407.53;;;4.29;71.29
71917;BME280;59793;46.506;6.674;2023-02-15T05:25:51;98422.66;;;4.32;71.97
71917;BME280;59793;46.506;6.674;2023-02-15T05:28:36;98421.88;;;4.42;72.46
71917;BME280;59793;46.506;6.674;2023-02-15T05:33:27;98435.94;;;4.46;73.10
71917;BME280;59793;46.506;6.674;2023-02-15T05:35:52;98415.34;;;4.40;73.30
71917;BME280;59793;46.506;6.674;2023-02-15T05:38:18;98440.06;;;4.58;72.71
71917;BME280;59793;46.506;6.674;2023-02-15T05:40:43;98429.97;;;4.36;73.23
71917;BME280;59793;46.506;6.674;2023-02-15T05:43:08;98431.53;;;4.42;73.83
71917;BME280;59793;46.506;6.674;2023-02-15T05:45:34;98416.34;;;4.54;73.13
71917;BME280;59793;46.506;6.674;2023-02-15T05:47:59;98448.59;;;4.73;72.33
71917;BME280;59793;46.506;6.674;2023-02-15T05:50:25;98442.88;;;4.71;72.32
71917;BME280;59793;46.506;6.674;2023-02-15T05:52:51;98445.81;;;4.60;72.01
71917;BME280;59793;46.506;6.674;2023-02-15T05:55:17;98350.31;;;3.78;71.81
71917;BME280;59793;46.506;6.674;2023-02-15T05:57:42;98427.66;;;4.19;71.88
71917;BME280;59793;46.506;6.674;2023-02-15T06:00:08;98421.94;;;4.12;71.20
71917;BME280;59793;46.506;6.674;2023-02-15T06:02:35;98440.41;;;4.20;71.32
71917;BME280;59793;46.506;6.674;2023-02-15T06:05:02;98451.88;;;4.35;71.17
71917;BME280;59793;46.506;6.674;2023-02-15T06:07:28;98421.13;;;4.21;71.22
71917;BME280;59793;46.506;6.674;2023-02-15T06:09:53;98428.97;;;4.21;71.08
71917;BME280;59793;46.506;6.674;2023-02-15T06:12:19;98447.69;;;4.34;71.69
71917;BME280;59793;46.506;6.674;2023-02-15T06:14:44;98411.22;;;4.13;72.59
71917;BME280;59793;46.506;6.674;2023-02-15T06:17:09;98456.31;;;4.39;73.02
71917;BME280;59793;46.506;6.674;2023-02-15T06:19:35;98455.75;;;4.47;73.13
71917;BME280;59793;46.506;6.674;2023-02-15T06:22:00;98439.38;;;4.26;73.42
71917;BME280;59793;46.506;6.674;2023-02-15T06:24:25;98451.34;;;4.43;74.08
71917;BME280;59793;46.506;6.674;2023-02-15T06:26:51;98466.44;;;4.51;74.22
71917;BME280;59793;46.506;6.674;2023-02-15T06:29:16;98466.47;;;4.46;73.92
71917;BME280;59793;46.506;6.674;2023-02-15T06:31:41;98467.28;;;4.36;73.46
71917;BME280;59793;46.506;6.674;2023-02-15T06:34:07;98447.72;;;4.23;74.57
71917;BME280;59793;46.506;6.674;2023-02-15T06:36:33;98424.53;;;4.12;73.32
71917;BME280;59793;46.506;6.674;2023-02-15T06:38:58;98455.31;;;4.10;74.99
71917;BME280;59793;46.506;6.674;2023-02-15T06:41:24;98469.13;;;4.15;74.71
71917;BME280;59793;46.506;6.674;2023-02-15T06:43:50;98487.88;;;4.38;73.91
71917;BME280;59793;46.506;6.674;2023-02-15T06:46:15;98461.84;;;4.17;74.83
71917;BME280;59793;46.506;6.674;2023-02-15T06:48:41;98446.19;;;4.17;75.45
71917;BME280;59793;46.506;6.674;2023-02-15T06:51:06;98468.59;;;4.28;76.24
71917;BME280;59793;46.506;6.674;2023-02-15T06:53:33;98451.66;;;4.16;75.69
71917;BME280;59793;46.506;6.674;2023-02-15T06:56:07;98488.38;;;4.45;74.67
71917;BME280;59793;46.506;6.674;2023-02-15T06:58:40;98472.75;;;4.35;74.58
71917;BME280;59793;46.506;6.674;2023-02-15T07:01:07;98488.13;;;4.41;74.31
71917;BME280;59793;46.506;6.674;2023-02-15T07:03:34;98486.31;;;4.37;74.62
71917;BME280;59793;46.506;6.674;2023-02-15T07:06:01;98476.41;;;4.34;74.48
71917;BME280;59793;46.506;6.674;2023-02-15T07:08:27;98443.56;;;4.12;74.60
71917;BME280;59793;46.506;6.674;2023-02-15T07:10:53;98489.97;;;4.36;74.94
71917;BME280;59793;46.506;6.674;2023-02-15T07:13:20;98485.81;;;4.29;74.70
71917;BME280;59793;46.506;6.674;2023-02-15T07:15:47;98488.63;;;4.53;74.79
71917;BME280;59793;46.506;6.674;2023-02-15T07:18:13;98471.66;;;4.51;75.25
71917;BME280;59793;46.506;6.674;2023-02-15T07:20:39;98494.81;;;4.73;75.35
71917;BME280;59793;46.506;6.674;2023-02-15T07:23:07;98482.00;;;4.82;74.74
71917;BME280;59793;46.506;6.674;2023-02-15T07:25:33;98469.13;;;5.00;74.52
71917;BME280;59793;46.506;6.674;2023-02-15T07:28:02;98451.00;;;5.19;74.01
71917;BME280;59793;46.506;6.674;2023-02-15T07:30:28;98480.56;;;5.54;73.24
71917;BME280;59793;46.506;6.674;2023-02-15T07:32:57;98445.59;;;5.50;72.47
71917;BME280;59793;46.506;6.674;2023-02-15T07:35:55;98469.84;;;5.90;71.54
71917;BME280;59793;46.506;6.674;2023-02-15T07:38:23;98447.31;;;5.99;71.21
71917;BME280;59793;46.506;6.674;2023-02-15T07:40:49;98445.84;;;6.17;71.19
71917;BME280;59793;46.506;6.674;2023-02-15T07:43:15;98472.63;;;6.57;70.94
71917;BME280;59793;46.506;6.674;2023-02-15T07:45:40;98476.19;;;6.90;70.32
71917;BME280;59793;46.506;6.674;2023-02-15T07:48:05;98456.66;;;7.01;69.33
71917;BME280;59793;46.506;6.674;2023-02-15T07:50:31;98443.34;;;7.16;68.44
71917;BME280;59793;46.506;6.674;2023-02-15T07:52:57;98460.75;;;7.45;68.01
71917;BME280;59793;46.506;6.674;2023-02-15T07:55:22;98470.97;;;7.65;66.83
71917;BME280;59793;46.506;6.674;2023-02-15T07:57:49;98445.97;;;7.54;66.86
71917;BME280;59793;46.506;6.674;2023-02-15T08:00:17;98441.53;;;7.69;66.75
71917;BME280;59793;46.506;6.674;2023-02-15T08:02:48;98460.47;;;7.98;66.97
71917;BME280;59793;46.506;6.674;2023-02-15T08:05:14;98452.03;;;8.15;66.26
71917;BME280;59793;46.506;6.674;2023-02-15T08:07:39;98451.59;;;8.41;65.53
71917;BME280;59793;46.506;6.674;2023-02-15T08:10:05;98458.72;;;8.68;64.86
71917;BME280;59793;46.506;6.674;2023-02-15T08:12:30;98443.72;;;8.82;64.08
71917;BME280;59793;46.506;6.674;2023-02-15T08:14:56;98460.63;;;8.90;63.78
71917;BME280;59793;46.506;6.674;2023-02-15T08:17:21;98457.72;;;9.05;63.63
71917;BME280;59793;46.506;6.674;2023-02-15T08:19:47;98456.69;;;9.15;63.60
71917;BME280;59793;46.506;6.674;2023-02-15T08:22:13;98451.31;;;8.70;64.18
71917;BME280;59793;46.506;6.674;2023-02-15T08:24:39;98394.97;;;8.62;63.84
71917;BME280;59793;46.506;6.674;2023-02-15T08:27:10;98445.19;;;9.24;63.06
71917;BME280;59793;46.506;6.674;2023-02-15T08:29:37;98450.44;;;9.47;63.38
71917;BME280;59793;46.506;6.674;2023-02-15T08:32:08;98434.09;;;9.14;63.53
71917;BME280;59793;46.506;6.674;2023-02-15T08:34:36;98431.69;;;9.03;64.22
71917;BME280;59793;46.506;6.674;2023-02-15T08:37:02;98423.50;;;9.19;63.83
71917;BME280;59793;46.506;6.674;2023-02-15T08:39:28;98440.25;;;9.45;62.81
71917;BME280;59793;46.506;6.674;2023-02-15T08:41:54;98443.72;;;9.54;63.10
71917;BME280;59793;46.506;6.674;2023-02-15T08:44:19;98448.31;;;9.49;62.31
71917;BME280;59793;46.506;6.674;2023-02-15T08:46:47;98428.03;;;9.27;62.94
71917;BME280;59793;46.506;6.674;2023-02-15T08:49:16;98427.63;;;8.97;64.00
71917;BME280;59793;46.506;6.674;2023-02-15T08:51:42;98397.91;;;8.60;65.23
71917;BME280;59793;46.506;6.674;2023-02-15T08:54:11;98426.78;;;8.88;64.90
71917;BME280;59793;46.506;6.674;2023-02-15T08:56:39;98433.97;;;8.82;65.76
71917;BME280;59793;46.506;6.674;2023-02-15T08:59:06;98436.50;;;8.88;65.92
71917;BME280;59793;46.506;6.674;2023-02-15T09:01:33;98393.13;;;8.76;64.95
71917;BME280;59793;46.506;6.674;2023-02-15T09:04:04;98397.88;;;8.88;63.86
71917;BME280;59793;46.506;6.674;2023-02-15T09:06:30;98382.84;;;8.66;64.33
71917;BME280;59793;46.506;6.674;2023-02-15T09:08:56;98405.53;;;8.98;64.75
71917;BME280;59793;46.506;6.674;2023-02-15T09:11:27;98398.78;;;9.06;64.60
71917;BME280;59793;46.506;6.674;2023-02-15T09:13:58;98431.03;;;9.56;63.34
71917;BME280;59793;46.506;6.674;2023-02-15T09:16:26;98395.97;;;9.02;64.83
71917;BME280;59793;46.506;6.674;2023-02-15T09:18:53;98430.81;;;9.44;62.38
71917;BME280;59793;46.506;6.674;2023-02-15T09:21:21;98424.81;;;9.30;62.85
71917;BME280;59793;46.506;6.674;2023-02-15T09:23:48;98417.97;;;9.06;63.52
71917;BME280;59793;46.506;6.674;2023-02-15T09:26:17;98423.41;;;9.10;63.49
71917;BME280;59793;46.506;6.674;2023-02-15T09:28:43;98422.25;;;9.39;62.61
71917;BME280;59793;46.506;6.674;2023-02-15T09:31:19;98421.09;;;9.31;63.15
71917;BME280;59793;46.506;6.674;2023-02-15T09:33:46;98406.47;;;9.16;63.04
71917;BME280;59793;46.506;6.674;2023-02-15T09:36:16;98418.69;;;9.21;62.84
71917;BME280;59793;46.506;6.674;2023-02-15T09:38:42;98405.91;;;9.28;62.57
71917;BME280;59793;46.506;6.674;2023-02-15T09:41:18;98423.22;;;9.06;63.53
71917;BME280;59793;46.506;6.674;2023-02-15T09:49:04;98419.88;;;10.04;60.30
71917;BME280;59793;46.506;6.674;2023-02-15T09:54:36;98389.25;;;10.57;58.20
71917;BME280;59793;46.506;6.674;2023-02-15T09:57:16;98380.72;;;10.60;57.09
71917;BME280;59793;46.506;6.674;2023-02-15T09:59:56;98416.41;;;10.84;56.14
71917;BME280;59793;46.506;6.674;2023-02-15T10:08:30;98412.38;;;10.86;56.31
71917;BME280;59793;46.506;6.674;2023-02-15T10:19:20;98405.94;;;9.81;59.69
71917;BME280;59793;46.506;6.674;2023-02-15T10:25:07;98397.88;;;9.78;60.47
71917;BME280;59793;46.506;6.674;2023-02-15T10:27:47;98396.97;;;9.51;61.07
71917;BME280;59793;46.506;6.674;2023-02-15T10:30:14;98385.47;;;10.10;59.39
71917;BME280;59793;46.506;6.674;2023-02-15T10:32:56;98406.34;;;9.97;59.56
71917;BME280;59793;46.506;6.674;2023-02-15T10:38:34;98393.88;;;10.12;58.72
71917;BME280;59793;46.506;6.674;2023-02-15T11:01:42;98377.56;;;10.32;59.13
71917;BME280;59793;46.506;6.674;2023-02-15T11:07:35;98382.41;;;11.52;56.96
71917;BME280;59793;46.506;6.674;2023-02-15T11:12:40;98374.88;;;10.89;58.02
71917;BME280;59793;46.506;6.674;2023-02-15T11:15:17;98367.69;;;11.33;56.25
71917;BME280;59793;46.506;6.674;2023-02-15T11:17:55;98350.06;;;11.81;54.33
71917;BME280;59793;46.506;6.674;2023-02-15T11:20:27;98361.34;;;12.37;53.39
71917;BME280;59793;46.506;6.674;2023-02-15T11:22:55;98358.09;;;12.31;53.15
71917;BME280;59793;46.506;6.674;2023-02-15T11:25:32;98353.31;;;11.86;54.01
71917;BME280;59793;46.506;6.674;2023-02-15T11:28:00;98361.19;;;11.22;55.96
71917;BME280;59793;46.506;6.674;2023-02-15T11:30:40;98319.00;;;11.13;55.77
71917;BME280;59793;46.506;6.674;2023-02-15T11:36:00;98349.91;;;11.77;54.88
71917;BME280;59793;46.506;6.674;2023-02-15T11:38:32;98290.16;;;11.64;53.03
71917;BME280;59793;46.506;6.674;2023-02-15T11:41:03;98334.72;;;12.12;52.06
71917;BME280;59793;46.506;6.674;2023-02-15T11:43:39;98338.09;;;12.51;51.26
71917;BME280;59793;46.506;6.674;2023-02-15T11:46:10;98302.38;;;11.77;52.80
71917;BME280;59793;46.506;6.674;2023-02-15T11:48:36;98308.06;;;11.49;55.02
71917;BME280;59793;46.506;6.674;2023-02-15T11:51:02;98283.06;;;12.24;51.55
71917;BME280;59793;46.506;6.674;2023-02-15T11:53:32;98324.03;;;12.80;50.95
71917;BME280;59793;46.506;6.674;2023-02-15T11:55:58;98283.91;;;12.36;52.78
71917;BME280;59793;46.506;6.674;2023-02-15T11:58:43;98317.34;;;13.16;48.90
71917;BME280;59793;46.506;6.674;2023-02-15T12:03:58;98305.34;;;13.19;50.34
71917;BME280;59793;46.506;6.674;2023-02-15T12:06:28;98303.03;;;12.96;50.67
71917;BME280;59793;46.506;6.674;2023-02-15T12:12:25;98301.97;;;13.30;48.73
71917;BME280;59793;46.506;6.674;2023-02-15T12:14:53;98300.47;;;13.21;49.21
71917;BME280;59793;46.506;6.674;2023-02-15T12:17:27;98296.69;;;13.09;49.76
71917;BME280;59793;46.506;6.674;2023-02-15T12:20:00;98275.03;;;13.28;49.21
71917;BME280;59793;46.506;6.674;2023-02-15T12:22:32;98292.31;;;13.59;48.46
71917;BME280;59793;46.506;6.674;2023-02-15T12:25:23;98300.75;;;13.85;48.39
71917;BME280;59793;46.506;6.674;2023-02-15T12:27:51;98263.34;;;12.96;50.16
71917;BME280;59793;46.506;6.674;2023-02-15T12:33:02;98287.66;;;12.77;50.72
71917;BME280;59793;46.506;6.674;2023-02-15T12:35:33;98283.38;;;11.92;53.26
71917;BME280;59793;46.506;6.674;2023-02-15T12:38:23;98266.00;;;11.91;52.81
71917;BME280;59793;46.506;6.674;2023-02-15T12:41:25;98278.16;;;12.13;52.69
71917;BME280;59793;46.506;6.674;2023-02-15T12:49:43;98277.94;;;13.02;51.02
71917;BME280;59793;46.506;6.674;2023-02-15T12:54:43;98287.13;;;14.76;45.63
71917;BME280;59793;46.506;6.674;2023-02-15T13:02:30;98273.63;;;14.53;43.52
71917;BME280;59793;46.506;6.674;2023-02-15T13:05:14;98272.53;;;14.30;46.23
71917;BME280;59793;46.506;6.674;2023-02-15T13:07:46;98273.13;;;14.11;44.49
71917;BME280;59793;46.506;6.674;2023-02-15T13:10:29;98275.22;;;13.93;47.16
71917;BME280;59793;46.506;6.674;2023-02-15T13:12:56;98285.97;;;14.49;44.78
71917;BME280;59793;46.506;6.674;2023-02-15T13:15:30;98271.75;;;14.42;46.43
71917;BME280;59793;46.506;6.674;2023-02-15T13:17:58;98255.56;;;14.59;45.30
71917;BME280;59793;46.506;6.674;2023-02-15T13:20:27;98260.66;;;14.92;44.43
71917;BME280;59793;46.506;6.674;2023-02-15T13:23:02;98266.06;;;14.96;43.68
71917;BME280;59793;46.506;6.674;2023-02-15T13:25:34;98251.47;;;14.90;43.47
71917;BME280;59793;46.506;6.674;2023-02-15T13:28:05;98258.06;;;15.24;43.85
71917;BME280;59793;46.506;6.674;2023-02-15T13:30:38;98244.19;;;15.62;42.50
71917;BME280;59793;46.506;6.674;2023-02-15T13:33:23;98246.84;;;15.94;42.22
71917;BME280;59793;46.506;6.674;2023-02-15T13:41:33;98234.91;;;15.88;40.58
71917;BME280;59793;46.506;6.674;2023-02-15T13:52:12;98232.56;;;16.02;39.79
71917;BME280;59793;46.506;6.674;2023-02-15T13:55:21;98228.69;;;16.15;39.60
71917;BME280;59793;46.506;6.674;2023-02-15T13:58:03;98216.56;;;16.18;39.78
71917;BME280;59793;46.506;6.674;2023-02-15T14:01:04;98212.59;;;16.47;39.96
71917;BME280;59793;46.506;6.674;2023-02-15T14:03:59;98218.63;;;16.83;37.94
71917;BME280;59793;46.506;6.674;2023-02-15T14:19:46;98212.72;;;17.39;39.35
71917;BME280;59793;46.506;6.674;2023-02-15T14:25:03;98216.56;;;16.95;39.90
71917;BME280;59793;46.506;6.674;2023-02-15T14:32:50;98199.84;;;16.56;39.93
71917;BME280;59793;46.506;6.674;2023-02-15T14:35:20;98203.06;;;17.54;37.41
71917;BME280;59793;46.506;6.674;2023-02-15T14:37:53;98193.34;;;17.91;34.29
71917;BME280;59793;46.506;6.674;2023-02-15T14:40:32;98201.06;;;18.00;33.19
71917;BME280;59793;46.506;6.674;2023-02-15T14:49:09;98199.09;;;18.24;34.70
71917;BME280;59793;46.506;6.674;2023-02-15T14:56:40;98196.41;;;19.39;33.79
71917;BME280;59793;46.506;6.674;2023-02-15T14:59:20;98210.16;;;19.89;33.33
71917;BME280;59793;46.506;6.674;2023-02-15T15:01:58;98222.75;;;19.37;34.26
71917;BME280;59793;46.506;6.674;2023-02-15T15:07:46;98214.59;;;18.14;35.70
71917;BME280;59793;46.506;6.674;2023-02-15T15:12:49;98198.13;;;18.73;34.20
71917;BME280;59793;46.506;6.674;2023-02-15T15:18:07;98205.97;;;18.62;35.25
71917;BME280;59793;46.506;6.674;2023-02-15T15:20:51;98208.44;;;18.10;36.26
71917;BME280;59793;46.506;6.674;2023-02-15T15:25:55;98209.31;;;17.42;37.90
71917;BME280;59793;46.506;6.674;2023-02-15T15:46:13;98188.47;;;14.71;43.72
71917;BME280;59793;46.506;6.674;2023-02-15T15:48:52;98176.22;;;13.85;45.31
71917;BME280;59793;46.506;6.674;2023-02-15T15:51:30;98199.88;;;13.78;46.40
71917;BME280;59793;46.506;6.674;2023-02-15T15:53:56;98175.03;;;13.34;47.40
71917;BME280;59793;46.506;6.674;2023-02-15T15:56:26;98177.75;;;13.01;48.50
71917;BME280;59793;46.506;6.674;2023-02-15T15:58:56;98191.34;;;12.45;50.23
71917;BME280;59793;46.506;6.674;2023-02-15T16:01:30;98214.50;;;12.27;51.06
71917;BME280;59793;46.506;6.674;2023-02-15T16:03:58;98200.50;;;12.06;51.54
71917;BME280;59793;46.506;6.674;2023-02-15T16:09:08;98200.06;;;12.58;50.34
71917;BME280;59793;46.506;6.674;2023-02-15T16:11:34;98203.16;;;12.93;50.18
71917;BME280;59793;46.506;6.674;2023-02-15T16:14:00;98194.50;;;13.05;50.08
71917;BME280;59793;46.506;6.674;2023-02-15T16:16:27;98191.34;;;12.78;50.96
71917;BME280;59793;46.506;6.674;2023-02-15T16:18:55;98216.56;;;13.09;50.28
71917;BME280;59793;46.506;6.674;2023-02-15T16:21:29;98214.63;;;12.85;50.26
71917;BME280;59793;46.506;6.674;2023-02-15T16:29:28;98229.94;;;12.79;49.60
71917;BME280;59793;46.506;6.674;2023-02-15T16:32:02;98239.53;;;12.84;49.07
71917;BME280;59793;46.506;6.674;2023-02-15T16:34:29;98234.66;;;12.32;50.38
71917;BME280;59793;46.506;6.674;2023-02-15T16:37:14;98239.88;;;11.99;50.94
71917;BME280;59793;46.506;6.674;2023-02-15T16:39:41;98200.22;;;11.39;52.49
71917;BME280;59793;46.506;6.674;2023-02-15T16:42:08;98233.41;;;11.49;53.35
71917;BME280;59793;46.506;6.674;2023-02-15T16:44:34;98186.31;;;11.21;53.55
71917;BME280;59793;46.506;6.674;2023-02-15T16:47:00;98212.22;;;11.19;53.27